Time;durP1;ratioP1;P1;durP2;ratioP2;P2;SDS_P1;SDS_P2;PMS_P1;PMS_P2;Temp;Humidity;BMP_temperature;BMP_pressure;BME280_temperature;BME280_humidity;BME280_pressure;Samples;Min_cycle;Max_cycle;Signal;HPM_P1;HPM_P2
2021/12/26 00:00:31;;;;;;;16.73;11.40;;;2.70;99.90;;;;;;5053071;28;20162;-90
2021/12/26 00:03:18;;;;;;;18.83;12.10;;;2.80;99.90;;;;;;5055321;28;20172;-91
2021/12/26 00:06:06;;;;;;;18.70;11.77;;;2.80;99.90;;;;;;5056114;28;20174;-91
2021/12/26 00:08:34;;;;;;;17.40;12.20;;;2.70;99.90;;;;;;5056208;28;20158;-85
2021/12/26 00:11:17;;;;;;;17.47;11.90;;;2.70;99.90;;;;;;5052842;28;20205;-88
2021/12/26 00:13:50;;;;;;;20.73;11.73;;;2.70;99.90;;;;;;5060100;28;20163;-86
2021/12/26 00:16:17;;;;;;;17.63;11.87;;;2.70;99.90;;;;;;5059900;28;20185;-87
2021/12/26 00:18:45;;;;;;;17.67;11.67;;;2.70;99.90;;;;;;5075869;28;20157;-87
2021/12/26 00:21:24;;;;;;;18.23;12.40;;;2.70;99.90;;;;;;5076306;28;20208;-79
2021/12/26 00:23:53;;;;;;;17.80;12.53;;;2.70;99.90;;;;;;5076225;28;20185;-76
2021/12/26 00:26:22;;;;;;;17.47;11.30;;;2.70;99.90;;;;;;5076107;28;20170;-78
2021/12/26 00:28:50;;;;;;;20.03;12.13;;;2.70;99.90;;;;;;5060248;28;20170;-80
2021/12/26 00:31:20;;;;;;;16.40;11.47;;;2.70;99.90;;;;;;5059996;28;20149;-78
2021/12/26 00:33:49;;;;;;;17.33;12.53;;;2.70;99.90;;;;;;5059484;28;20161;-80
2021/12/26 00:36:38;;;;;;;17.47;11.93;;;2.70;99.90;;;;;;5060116;28;20185;-80
2021/12/26 00:39:15;;;;;;;17.93;11.90;;;2.70;99.90;;;;;;5076282;28;20177;-79
2021/12/26 00:42:13;;;;;;;20.03;12.90;;;2.60;99.90;;;;;;5075539;28;20138;-78
2021/12/26 00:44:58;;;;;;;18.87;11.50;;;2.60;99.90;;;;;;5076150;28;20174;-79
2021/12/26 00:47:30;;;;;;;16.13;11.37;;;2.60;99.90;;;;;;5075722;28;20184;-81
2021/12/26 00:50:04;;;;;;;18.87;13.07;;;2.60;99.90;;;;;;5060009;28;20146;-80
2021/12/26 00:52:39;;;;;;;18.93;12.93;;;2.50;99.90;;;;;;5075287;28;20191;-80
2021/12/26 00:55:10;;;;;;;22.70;13.03;;;2.60;99.90;;;;;;5058870;28;20237;-79
2021/12/26 00:57:36;;;;;;;22.77;13.53;;;2.60;99.90;;;;;;5059097;28;20277;-78
2021/12/26 01:00:06;;;;;;;22.33;13.97;;;2.60;99.90;;;;;;5057345;28;20180;-78
2021/12/26 01:02:32;;;;;;;22.70;13.23;;;2.70;99.90;;;;;;5058326;28;20158;-79
2021/12/26 01:05:07;;;;;;;23.93;14.67;;;2.60;99.90;;;;;;5059685;28;20180;-80
2021/12/26 01:11:03;;;;;;;30.17;15.13;;;2.70;99.90;;;;;;5038370;28;20186;-87
2021/12/26 01:15:57;;;;;;;20.93;13.33;;;2.70;99.90;;;;;;5038484;28;20155;-81
2021/12/26 01:18:27;;;;;;;20.30;13.90;;;2.90;99.90;;;;;;5021874;28;20193;-78
2021/12/26 01:21:19;;;;;;;22.13;13.87;;;2.90;99.90;;;;;;5046916;28;20194;-79
2021/12/26 01:23:53;;;;;;;20.17;13.60;;;2.90;99.90;;;;;;5057967;28;20178;-80
2021/12/26 01:26:34;;;;;;;22.73;15.23;;;2.90;99.90;;;;;;5057024;28;20165;-83
2021/12/26 01:29:09;;;;;;;23.10;13.97;;;2.90;99.90;;;;;;5057184;28;20158;-79
2021/12/26 01:32:26;;;;;;;23.07;15.07;;;3.00;99.90;;;;;;5072725;28;20188;-84
2021/12/26 01:34:57;;;;;;;24.63;13.80;;;3.00;99.90;;;;;;5058567;28;20142;-85
2021/12/26 01:37:26;;;;;;;24.13;14.87;;;3.00;99.90;;;;;;5058342;28;20189;-79
2021/12/26 01:39:52;;;;;;;24.93;16.57;;;2.90;99.90;;;;;;5058922;28;20161;-81
2021/12/26 01:42:20;;;;;;;22.90;15.07;;;3.00;99.90;;;;;;5058029;28;20162;-79
2021/12/26 01:44:49;;;;;;;25.77;16.07;;;3.10;99.90;;;;;;5072165;28;20162;-84
2021/12/26 01:47:16;;;;;;;22.63;15.00;;;3.20;99.90;;;;;;5055742;28;20177;-89
2021/12/26 01:49:41;;;;;;;20.47;13.33;;;3.10;99.90;;;;;;5072083;28;20196;-91
2021/12/26 01:52:08;;;;;;;24.20;14.27;;;3.00;99.90;;;;;;5070930;28;20645;-86
2021/12/26 01:54:49;;;;;;;24.00;14.27;;;3.00;99.90;;;;;;5051632;28;20189;-89
2021/12/26 01:57:18;;;;;;;32.13;15.63;;;3.00;99.90;;;;;;5053103;28;20213;-83
2021/12/26 01:59:46;;;;;;;23.50;14.57;;;3.00;99.90;;;;;;5055302;28;20184;-84
2021/12/26 02:02:12;;;;;;;21.60;14.67;;;3.10;99.90;;;;;;5053822;28;20261;-90
2021/12/26 02:04:44;;;;;;;30.23;15.93;;;3.00;99.90;;;;;;5040607;28;20169;-91
2021/12/26 02:07:13;;;;;;;25.03;15.07;;;3.00;99.90;;;;;;5036387;28;20227;-92
2021/12/26 02:09:45;;;;;;;23.07;15.43;;;3.00;99.90;;;;;;5037379;28;20172;-92
2021/12/26 02:12:16;;;;;;;24.67;16.03;;;3.00;99.90;;;;;;5054292;28;20192;-92
2021/12/26 02:14:45;;;;;;;22.47;15.73;;;3.00;99.90;;;;;;5038412;28;20260;-91
2021/12/26 02:17:15;;;;;;;28.67;15.73;;;3.10;99.90;;;;;;5055573;28;20209;-91
2021/12/26 02:19:44;;;;;;;27.23;16.00;;;3.20;99.90;;;;;;5053600;28;20238;-91
2021/12/26 02:22:18;;;;;;;26.20;15.73;;;3.20;99.90;;;;;;5038392;28;20169;-92
2021/12/26 02:27:47;;;;;;;25.17;15.70;;;3.30;99.90;;;;;;5038572;28;20523;-86
2021/12/26 02:30:17;;;;;;;24.80;16.10;;;3.30;99.90;;;;;;5038530;28;20170;-91
2021/12/26 02:32:48;;;;;;;22.10;14.80;;;3.50;99.90;;;;;;5038220;28;20256;-91
2021/12/26 02:38:34;;;;;;;23.93;15.30;;;3.40;99.90;;;;;;5037826;28;20288;-92
2021/12/26 02:41:32;;;;;;;23.07;14.90;;;3.30;99.90;;;;;;5052885;28;20274;-91
2021/12/26 02:44:40;;;;;;;22.60;15.63;;;3.20;99.90;;;;;;5038613;28;20197;-91
2021/12/26 02:47:05;;;;;;;24.30;16.43;;;3.20;99.90;;;;;;5039646;28;20197;-92
2021/12/26 02:52:54;;;;;;;25.40;16.00;;;3.30;99.90;;;;;;5038931;28;20203;-92
2021/12/26 02:55:56;;;;;;;24.07;15.97;;;3.30;99.90;;;;;;5041317;28;20174;-91
2021/12/26 02:58:48;;;;;;;22.80;15.50;;;3.30;99.90;;;;;;5039231;28;20204;-90
2021/12/26 03:01:23;;;;;;;23.77;15.97;;;3.30;99.90;;;;;;5045405;28;20209;-90
2021/12/26 03:03:53;;;;;;;24.50;15.53;;;3.40;99.90;;;;;;5045979;28;20165;-90
2021/12/26 03:06:54;;;;;;;26.57;17.23;;;3.20;99.90;;;;;;5050614;28;20173;-78
2021/12/26 03:09:21;;;;;;;28.70;17.57;;;3.20;99.90;;;;;;5056444;28;20149;-78
2021/12/26 03:11:57;;;;;;;26.17;16.67;;;3.20;99.90;;;;;;5057241;28;20169;-78
2021/12/26 03:14:22;;;;;;;24.90;18.00;;;3.20;99.90;;;;;;5059009;28;20158;-81
2021/12/26 03:16:51;;;;;;;21.77;14.93;;;3.20;99.90;;;;;;5059949;28;20243;-87
2021/12/26 03:19:23;;;;;;;26.87;17.47;;;3.20;99.90;;;;;;5061089;28;20165;-89
2021/12/26 03:21:51;;;;;;;24.43;18.23;;;3.20;99.90;;;;;;5075627;28;20218;-86
2021/12/26 03:24:18;;;;;;;27.37;16.77;;;3.30;99.90;;;;;;5075313;28;20173;-91
2021/12/26 03:26:47;;;;;;;24.03;16.97;;;3.40;99.90;;;;;;5061265;28;20180;-89
2021/12/26 03:32:35;;;;;;;26.90;18.10;;;3.40;99.90;;;;;;5042265;28;20157;-90
2021/12/26 03:35:37;;;;;;;26.63;18.03;;;3.40;99.90;;;;;;5050627;28;20174;-91
2021/12/26 03:38:48;;;;;;;23.80;16.37;;;3.60;99.90;;;;;;5058839;28;20200;-90
2021/12/26 03:41:30;;;;;;;26.43;17.37;;;3.50;99.90;;;;;;5061145;28;20150;-77
2021/12/26 03:43:58;;;;;;;25.57;17.67;;;3.50;99.90;;;;;;5061183;28;20150;-81
2021/12/26 03:46:24;;;;;;;26.87;17.37;;;3.50;99.90;;;;;;5052568;28;20218;-91
2021/12/26 03:48:50;;;;;;;27.97;17.50;;;3.50;99.90;;;;;;5039679;28;20182;-88
2021/12/26 03:51:15;;;;;;;25.03;18.10;;;3.40;99.90;;;;;;5039727;28;20177;-91
2021/12/26 03:53:41;;;;;;;26.23;19.27;;;3.40;99.90;;;;;;5055923;28;20235;-89
2021/12/26 03:56:07;;;;;;;27.10;17.77;;;3.40;99.90;;;;;;5039725;28;20184;-92
2021/12/26 03:58:32;;;;;;;24.90;18.03;;;3.40;99.90;;;;;;5039888;28;20205;-88
2021/12/26 04:00:58;;;;;;;28.50;19.23;;;3.40;99.90;;;;;;5039736;28;20246;-90
2021/12/26 04:03:24;;;;;;;23.50;17.47;;;3.40;99.90;;;;;;5040041;28;20177;-90
2021/12/26 04:05:50;;;;;;;21.97;17.20;;;3.30;99.90;;;;;;5039862;28;20532;-91
2021/12/26 04:08:15;;;;;;;25.27;16.77;;;3.40;99.90;;;;;;5039130;28;20173;-91
2021/12/26 04:10:41;;;;;;;24.33;17.27;;;3.40;99.90;;;;;;5039065;28;20174;-90
2021/12/26 04:13:07;;;;;;;24.17;17.90;;;3.40;99.90;;;;;;5039203;28;20723;-89
2021/12/26 04:15:33;;;;;;;24.70;16.13;;;3.40;99.90;;;;;;5038984;28;20169;-90
2021/12/26 04:18:00;;;;;;;23.07;16.63;;;3.50;99.90;;;;;;5038951;28;20205;-92
2021/12/26 04:20:29;;;;;;;21.27;16.00;;;3.50;99.90;;;;;;5054226;28;20173;-91
2021/12/26 04:22:58;;;;;;;21.17;15.77;;;3.40;99.90;;;;;;5039445;28;20224;-90
2021/12/26 04:25:27;;;;;;;23.10;16.60;;;3.60;99.90;;;;;;5040159;28;20186;-88
2021/12/26 04:27:53;;;;;;;22.57;16.20;;;3.50;99.90;;;;;;5039853;28;20177;-88
2021/12/26 04:30:21;;;;;;;22.30;17.03;;;3.60;99.90;;;;;;5039236;28;20626;-91
2021/12/26 04:32:48;;;;;;;20.13;15.30;;;3.50;99.90;;;;;;5038565;28;20169;-90
2021/12/26 04:35:15;;;;;;;21.07;15.43;;;3.50;99.90;;;;;;5038750;28;20211;-89
2021/12/26 04:37:41;;;;;;;18.33;14.90;;;3.50;99.90;;;;;;5039497;28;20288;-85
2021/12/26 04:40:09;;;;;;;19.70;15.10;;;3.50;99.90;;;;;;5039259;28;20215;-91
2021/12/26 04:42:37;;;;;;;21.90;16.17;;;3.50;99.90;;;;;;5039673;28;20224;-89
2021/12/26 04:45:08;;;;;;;19.37;15.83;;;3.40;99.90;;;;;;5039865;28;20204;-90
2021/12/26 04:47:35;;;;;;;19.03;15.30;;;3.50;99.90;;;;;;5054984;28;20193;-91
2021/12/26 04:50:01;;;;;;;20.47;15.83;;;3.50;99.90;;;;;;5039212;28;20173;-92
2021/12/26 04:52:27;;;;;;;19.33;14.97;;;3.50;99.90;;;;;;5038780;28;20231;-87
2021/12/26 04:54:53;;;;;;;20.33;14.97;;;3.50;99.90;;;;;;5038138;28;20169;-91
2021/12/26 04:57:19;;;;;;;18.47;14.63;;;3.50;99.90;;;;;;5054142;28;20221;-92
2021/12/26 04:59:44;;;;;;;17.00;14.40;;;3.40;99.90;;;;;;5037585;28;20681;-89
2021/12/26 05:02:11;;;;;;;17.67;14.70;;;3.50;99.90;;;;;;5037289;28;20186;-92
2021/12/26 05:04:37;;;;;;;21.67;16.10;;;3.40;99.90;;;;;;5037141;28;20174;-90
2021/12/26 05:07:05;;;;;;;19.73;15.90;;;3.50;99.90;;;;;;5037707;28;20259;-92
2021/12/26 05:09:31;;;;;;;16.63;14.67;;;3.40;99.90;;;;;;5037023;28;20170;-88
2021/12/26 05:11:58;;;;;;;18.63;14.83;;;3.50;99.90;;;;;;5037143;28;20602;-91
2021/12/26 05:14:24;;;;;;;19.73;15.53;;;3.50;99.90;;;;;;5036933;28;20182;-92
2021/12/26 05:16:50;;;;;;;18.17;15.23;;;3.60;99.90;;;;;;5036604;28;20287;-89
2021/12/26 05:19:17;;;;;;;17.07;14.20;;;3.60;99.90;;;;;;5037073;28;20665;-90
2021/12/26 05:21:43;;;;;;;18.57;15.43;;;3.60;99.90;;;;;;5037139;28;20162;-91
2021/12/26 05:24:08;;;;;;;16.40;14.37;;;3.60;99.90;;;;;;5037072;28;20252;-88
2021/12/26 05:26:35;;;;;;;18.00;14.80;;;3.60;99.90;;;;;;5037254;28;20174;-91
2021/12/26 05:29:01;;;;;;;18.57;14.90;;;3.80;99.90;;;;;;5036927;28;20188;-92
2021/12/26 05:31:26;;;;;;;17.17;15.30;;;3.80;99.90;;;;;;5037140;28;20173;-90
2021/12/26 05:33:52;;;;;;;18.87;14.53;;;3.90;99.90;;;;;;5034800;28;20181;-90
2021/12/26 05:36:18;;;;;;;17.93;13.90;;;3.90;99.90;;;;;;5036848;28;20250;-92
2021/12/26 05:38:43;;;;;;;16.77;13.97;;;4.00;99.90;;;;;;5036154;28;20212;-83
2021/12/26 05:41:09;;;;;;;15.83;13.37;;;4.10;99.90;;;;;;5036552;28;20653;-89
2021/12/26 05:43:35;;;;;;;18.07;15.43;;;4.20;99.90;;;;;;5036626;28;20217;-88
2021/12/26 05:46:01;;;;;;;18.53;15.53;;;4.10;99.90;;;;;;5035945;28;20230;-82
2021/12/26 05:48:26;;;;;;;19.80;15.63;;;4.10;99.90;;;;;;5036519;28;20174;-92
2021/12/26 05:50:52;;;;;;;19.17;14.87;;;4.20;99.90;;;;;;5036885;28;20180;-88
2021/12/26 05:53:19;;;;;;;16.40;13.63;;;4.20;99.90;;;;;;5036821;28;20291;-89
2021/12/26 05:55:45;;;;;;;16.53;14.20;;;4.10;99.90;;;;;;5036191;28;20214;-89
2021/12/26 05:58:11;;;;;;;16.77;13.97;;;4.10;99.90;;;;;;5035921;28;20209;-90
2021/12/26 06:00:36;;;;;;;17.00;14.63;;;4.20;99.90;;;;;;5036037;28;20188;-90
2021/12/26 06:03:03;;;;;;;18.30;15.23;;;4.20;99.90;;;;;;5036521;28;20174;-91
2021/12/26 06:05:31;;;;;;;17.40;14.90;;;4.40;99.90;;;;;;5035965;28;20166;-91
2021/12/26 06:07:57;;;;;;;17.27;14.67;;;4.50;99.90;;;;;;5036204;28;20174;-93
2021/12/26 06:10:22;;;;;;;17.57;14.50;;;4.40;99.90;;;;;;5038941;28;20181;-90
2021/12/26 06:12:48;;;;;;;18.67;15.03;;;4.40;99.90;;;;;;5041504;28;20220;-93
2021/12/26 06:15:15;;;;;;;17.73;14.63;;;4.40;99.90;;;;;;5042966;28;20165;-90
2021/12/26 06:17:42;;;;;;;16.87;14.07;;;4.50;99.90;;;;;;5051939;28;20249;-89
2021/12/26 06:20:14;;;;;;;16.93;14.63;;;4.60;99.90;;;;;;5034812;28;20204;-86
2021/12/26 06:22:44;;;;;;;17.17;14.73;;;4.60;99.90;;;;;;5036599;28;20180;-90
2021/12/26 06:25:17;;;;;;;17.63;15.30;;;4.50;99.90;;;;;;5036768;28;20174;-87
2021/12/26 06:27:43;;;;;;;16.83;14.67;;;4.50;99.90;;;;;;5036696;28;20166;-89
2021/12/26 06:30:10;;;;;;;18.67;14.93;;;4.40;99.90;;;;;;5051509;28;20307;-88
2021/12/26 06:32:38;;;;;;;16.77;14.77;;;4.40;99.90;;;;;;5035960;28;20157;-90
2021/12/26 06:35:05;;;;;;;18.10;15.73;;;4.40;99.90;;;;;;5036481;28;20185;-90
2021/12/26 06:37:35;;;;;;;17.80;14.37;;;4.40;99.90;;;;;;5043543;28;20209;-88
2021/12/26 06:40:01;;;;;;;17.33;14.97;;;4.40;99.90;;;;;;5051896;28;20142;-88
2021/12/26 06:42:29;;;;;;;18.20;15.03;;;4.40;99.90;;;;;;5051041;28;20181;-90
2021/12/26 06:45:17;;;;;;;18.07;15.10;;;4.40;99.90;;;;;;5039863;28;20174;-90
2021/12/26 06:47:48;;;;;;;17.73;14.67;;;4.40;99.90;;;;;;5036573;28;20181;-87
2021/12/26 06:50:14;;;;;;;17.67;14.10;;;4.30;99.90;;;;;;5039505;28;20146;-89
2021/12/26 06:52:39;;;;;;;18.93;15.73;;;4.20;99.90;;;;;;5042002;28;20174;-88
2021/12/26 06:55:07;;;;;;;19.93;15.23;;;4.30;99.90;;;;;;5044646;28;20166;-87
2021/12/26 06:57:33;;;;;;;23.77;15.20;;;4.30;99.90;;;;;;5043829;28;20201;-91
2021/12/26 06:59:58;;;;;;;18.23;15.77;;;4.30;99.90;;;;;;5043785;28;20176;-92
2021/12/26 07:02:24;;;;;;;19.07;15.83;;;4.30;99.90;;;;;;5052340;28;20176;-88
2021/12/26 07:04:58;;;;;;;21.57;16.20;;;4.40;99.90;;;;;;5047469;28;20185;-90
2021/12/26 07:07:25;;;;;;;21.37;15.60;;;4.40;99.90;;;;;;5051261;28;20173;-88
2021/12/26 07:09:51;;;;;;;17.87;15.37;;;4.30;99.90;;;;;;5049644;28;20164;-89
2021/12/26 07:12:16;;;;;;;20.10;15.43;;;4.30;99.90;;;;;;5051782;28;20193;-90
2021/12/26 07:14:42;;;;;;;19.60;16.23;;;4.30;99.90;;;;;;5047011;28;20230;-89
2021/12/26 07:17:10;;;;;;;18.67;15.80;;;4.30;99.90;;;;;;5040309;28;20783;-90
2021/12/26 07:19:36;;;;;;;18.60;15.77;;;4.30;99.90;;;;;;5039566;28;20173;-89
2021/12/26 07:22:02;;;;;;;19.40;16.00;;;4.30;99.90;;;;;;5054367;28;20642;-90
2021/12/26 07:24:28;;;;;;;18.17;15.33;;;4.30;99.90;;;;;;5039248;28;20192;-90
2021/12/26 07:26:55;;;;;;;21.13;16.07;;;4.20;99.90;;;;;;5039757;28;20244;-86
2021/12/26 07:29:21;;;;;;;18.90;16.07;;;4.30;99.90;;;;;;5039156;28;20170;-91
2021/12/26 07:31:49;;;;;;;19.83;15.23;;;4.30;99.90;;;;;;5038910;28;20164;-90
2021/12/26 07:34:42;;;;;;;18.10;15.50;;;4.40;99.90;;;;;;5039547;28;20165;-90
2021/12/26 07:37:13;;;;;;;19.83;14.23;;;4.30;99.90;;;;;;5039127;28;20193;-89
2021/12/26 07:40:16;;;;;;;17.73;15.57;;;4.40;99.90;;;;;;5041522;28;20158;-89
2021/12/26 07:42:45;;;;;;;20.73;17.10;;;4.40;99.90;;;;;;5039967;28;20162;-90
2021/12/26 07:45:14;;;;;;;20.03;16.00;;;4.40;99.90;;;;;;5039803;28;20614;-88
2021/12/26 07:47:40;;;;;;;21.13;16.77;;;4.40;99.90;;;;;;5039906;28;20656;-88
2021/12/26 07:56:46;;;;;;;20.40;15.70;;;4.20;99.90;;;;;;5052977;28;20176;-89
2021/12/26 07:59:12;;;;;;;19.33;15.53;;;4.20;99.90;;;;;;5056872;28;20169;-83
2021/12/26 08:01:40;;;;;;;20.27;16.70;;;4.20;99.90;;;;;;5058394;28;20181;-79
2021/12/26 08:04:09;;;;;;;20.70;16.80;;;4.20;99.90;;;;;;5060480;28;20158;-81
2021/12/26 08:06:48;;;;;;;21.40;16.87;;;4.20;99.90;;;;;;5053193;28;20625;-92
2021/12/26 08:09:20;;;;;;;19.87;16.63;;;4.20;99.90;;;;;;5060284;28;20154;-91
2021/12/26 08:11:57;;;;;;;20.90;17.27;;;4.20;99.90;;;;;;5045074;28;20205;-91
2021/12/26 08:17:47;;;;;;;20.17;16.37;;;4.20;99.90;;;;;;5042489;28;20212;-91
2021/12/26 08:20:37;;;;;;;20.27;16.17;;;4.30;99.90;;;;;;5041212;28;20234;-91
2021/12/26 08:23:25;;;;;;;20.13;16.33;;;4.20;99.90;;;;;;5044286;28;20193;-91
2021/12/26 08:26:17;;;;;;;21.03;17.37;;;4.20;99.90;;;;;;5049375;28;20154;-84
2021/12/26 08:29:06;;;;;;;21.43;16.10;;;4.20;99.90;;;;;;5053922;28;20178;-88
2021/12/26 08:34:54;;;;;;;22.17;16.83;;;4.40;99.90;;;;;;5057734;28;20153;-84
2021/12/26 08:37:19;;;;;;;20.07;16.87;;;4.40;99.90;;;;;;5059027;28;20252;-79
2021/12/26 08:39:47;;;;;;;22.27;17.50;;;4.40;99.90;;;;;;5058825;28;20185;-79
2021/12/26 08:42:34;;;;;;;20.53;17.07;;;4.40;99.90;;;;;;5045779;28;20233;-84
2021/12/26 08:45:09;;;;;;;20.33;16.67;;;4.50;99.90;;;;;;5040737;28;20169;-85
2021/12/26 08:50:57;;;;;;;21.03;16.97;;;4.50;99.90;;;;;;5039939;28;20185;-91
2021/12/26 08:53:46;;;;;;;19.80;16.47;;;4.60;99.90;;;;;;5039089;28;20610;-90
2021/12/26 08:56:11;;;;;;;23.23;17.43;;;4.50;99.90;;;;;;5039562;28;20176;-91
2021/12/26 08:59:00;;;;;;;21.37;16.43;;;4.50;99.90;;;;;;5037816;28;20292;-89
2021/12/26 09:02:02;;;;;;;19.50;16.73;;;4.50;99.90;;;;;;5037642;28;20673;-90
2021/12/26 09:04:38;;;;;;;18.63;16.53;;;4.50;99.90;;;;;;5054401;28;20169;-91
2021/12/26 09:07:05;;;;;;;19.63;16.70;;;4.50;99.90;;;;;;5039826;28;20241;-91
2021/12/26 09:09:33;;;;;;;21.03;17.53;;;4.60;99.90;;;;;;5040396;28;20174;-93
2021/12/26 09:15:22;;;;;;;22.63;16.93;;;4.50;99.90;;;;;;5050326;28;20590;-85
2021/12/26 09:17:51;;;;;;;20.97;17.43;;;4.60;99.90;;;;;;5056037;28;20236;-79
2021/12/26 09:20:35;;;;;;;20.80;17.67;;;4.60;99.90;;;;;;5071112;28;20177;-89
2021/12/26 09:23:07;;;;;;;19.30;16.23;;;4.70;99.90;;;;;;5050439;28;20217;-82
2021/12/26 09:25:41;;;;;;;19.90;17.10;;;4.70;99.90;;;;;;5051277;28;20169;-80
2021/12/26 09:28:06;;;;;;;20.53;17.10;;;4.70;99.90;;;;;;5064966;28;20255;-84
2021/12/26 09:30:37;;;;;;;21.63;17.83;;;4.70;99.90;;;;;;5039037;28;20181;-85
2021/12/26 09:33:03;;;;;;;20.77;16.83;;;4.70;99.90;;;;;;5053800;28;20628;-89
2021/12/26 09:35:32;;;;;;;20.40;16.90;;;4.80;99.90;;;;;;5053825;28;20209;-87
2021/12/26 09:38:19;;;;;;;22.07;17.40;;;4.80;99.90;;;;;;5038410;28;20194;-88
2021/12/26 09:41:16;;;;;;;21.70;17.53;;;4.90;99.90;;;;;;5041325;28;20170;-83
2021/12/26 09:43:44;;;;;;;20.77;17.10;;;4.90;99.90;;;;;;5057459;28;20177;-80
2021/12/26 09:46:35;;;;;;;22.03;17.20;;;4.90;99.90;;;;;;5058128;28;20253;-83
2021/12/26 09:49:04;;;;;;;21.77;17.00;;;5.00;99.90;;;;;;5054138;28;20189;-77
2021/12/26 09:51:52;;;;;;;21.60;16.73;;;5.00;99.90;;;;;;5069580;28;20170;-79
2021/12/26 09:57:40;;;;;;;22.37;16.53;;;5.10;99.90;;;;;;5055916;28;20217;-79
2021/12/26 10:00:37;;;;;;;20.60;16.43;;;5.20;99.90;;;;;;5056976;28;20197;-81
2021/12/26 10:03:27;;;;;;;21.77;17.47;;;5.40;99.90;;;;;;5056345;28;20158;-80
2021/12/26 10:05:54;;;;;;;19.67;16.10;;;5.50;99.90;;;;;;5056849;28;20158;-79
2021/12/26 10:08:57;;;;;;;19.20;15.90;;;5.50;99.90;;;;;;5056603;28;20172;-82
2021/12/26 10:11:30;;;;;;;20.83;16.67;;;5.50;99.90;;;;;;5056537;28;20217;-81
2021/12/26 10:14:01;;;;;;;19.60;16.17;;;5.60;99.90;;;;;;5056741;28;20150;-78
2021/12/26 10:16:32;;;;;;;19.03;16.13;;;5.60;99.90;;;;;;5072074;28;20658;-80
2021/12/26 10:19:03;;;;;;;18.60;15.50;;;5.60;99.90;;;;;;5066966;28;20197;-79
2021/12/26 10:21:37;;;;;;;20.87;16.67;;;5.60;99.90;;;;;;5051176;28;20154;-80
2021/12/26 10:24:11;;;;;;;20.60;15.47;;;5.60;99.90;;;;;;5057000;28;20172;-81
2021/12/26 10:27:02;;;;;;;19.93;16.33;;;5.70;99.90;;;;;;5059949;28;20188;-79
2021/12/26 10:29:32;;;;;;;20.40;16.53;;;5.70;99.90;;;;;;5059638;28;20234;-79
2021/12/26 10:32:34;;;;;;;20.37;16.23;;;5.80;99.90;;;;;;5057328;28;20169;-79
2021/12/26 10:35:14;;;;;;;18.50;15.47;;;5.90;99.90;;;;;;5055636;28;20156;-80
2021/12/26 10:38:33;;;;;;;20.47;17.00;;;6.00;99.90;;;;;;5057479;28;20212;-79
2021/12/26 10:40:59;;;;;;;17.93;15.20;;;6.10;99.90;;;;;;5059363;28;20182;-78
2021/12/26 10:43:45;;;;;;;19.20;16.00;;;6.20;99.90;;;;;;5059094;28;20176;-81
2021/12/26 10:46:31;;;;;;;18.73;15.40;;;6.50;99.90;;;;;;5075328;28;20158;-79
2021/12/26 10:52:22;;;;;;;21.40;16.87;;;6.90;99.90;;;;;;5055806;28;20169;-82
2021/12/26 10:55:12;;;;;;;18.40;15.70;;;6.90;99.40;;;;;;5053310;28;20178;-81
2021/12/26 10:58:00;;;;;;;20.77;15.73;;;6.80;99.20;;;;;;5055009;28;20196;-80
2021/12/26 11:00:29;;;;;;;20.27;16.17;;;6.90;99.40;;;;;;5054388;28;20194;-80
2021/12/26 11:03:06;;;;;;;18.20;15.40;;;7.20;99.50;;;;;;5072704;28;20162;-81
2021/12/26 11:05:44;;;;;;;18.27;14.87;;;7.20;99.30;;;;;;5060389;28;20145;-82
2021/12/26 11:08:17;;;;;;;18.53;15.43;;;7.20;99.20;;;;;;5076778;28;20177;-80
2021/12/26 11:10:48;;;;;;;19.40;15.37;;;7.20;99.20;;;;;;5060279;28;20165;-81
2021/12/26 11:13:28;;;;;;;17.63;14.60;;;7.20;99.20;;;;;;5060467;28;20177;-84
2021/12/26 11:16:06;;;;;;;19.53;16.37;;;7.30;99.20;;;;;;5060621;28;20168;-81
2021/12/26 11:18:33;;;;;;;18.30;15.00;;;7.30;99.20;;;;;;5059420;28;20205;-79
2021/12/26 11:21:14;;;;;;;16.53;14.00;;;7.20;99.70;;;;;;5059138;28;20170;-84
2021/12/26 11:23:42;;;;;;;16.87;13.43;;;7.30;99.70;;;;;;5060657;28;20158;-85
2021/12/26 11:26:15;;;;;;;17.07;13.73;;;7.30;99.70;;;;;;5060479;28;20180;-81
2021/12/26 11:28:44;;;;;;;18.03;13.23;;;7.30;99.60;;;;;;5059903;28;20154;-81
2021/12/26 11:31:15;;;;;;;15.17;12.83;;;7.40;99.70;;;;;;5075229;28;20153;-81
2021/12/26 11:33:42;;;;;;;14.80;12.10;;;7.40;99.60;;;;;;5060151;28;20603;-82
2021/12/26 11:36:10;;;;;;;15.87;12.03;;;7.40;99.90;;;;;;5058941;28;20212;-79
2021/12/26 11:38:40;;;;;;;14.63;12.57;;;7.40;99.90;;;;;;5072630;28;20213;-79
2021/12/26 11:41:08;;;;;;;14.33;12.03;;;7.50;99.90;;;;;;5056929;28;20166;-79
2021/12/26 11:43:34;;;;;;;14.33;12.10;;;7.40;99.90;;;;;;5058279;28;20168;-79
2021/12/26 11:46:23;;;;;;;14.43;12.07;;;7.50;99.90;;;;;;5059055;28;20185;-78
2021/12/26 11:49:29;;;;;;;15.90;12.70;;;7.70;99.90;;;;;;5059162;28;20185;-78
2021/12/26 11:52:26;;;;;;;14.40;11.70;;;7.70;99.90;;;;;;5058901;28;20188;-80
2021/12/26 11:55:13;;;;;;;13.73;12.00;;;7.60;99.90;;;;;;5059778;28;20157;-79
2021/12/26 11:58:10;;;;;;;14.87;11.60;;;7.60;99.90;;;;;;5058919;28;20271;-79
2021/12/26 12:00:38;;;;;;;15.23;12.17;;;7.60;99.90;;;;;;5059343;28;20178;-79
2021/12/26 12:03:29;;;;;;;13.90;11.33;;;7.60;99.90;;;;;;5059289;28;20253;-81
2021/12/26 12:05:56;;;;;;;16.30;11.67;;;7.60;99.90;;;;;;5059383;28;20204;-89
2021/12/26 12:08:35;;;;;;;14.93;12.50;;;7.60;99.90;;;;;;5059782;28;20196;-83
2021/12/26 12:11:07;;;;;;;14.33;12.00;;;7.60;99.90;;;;;;5059366;28;20188;-80
2021/12/26 12:13:39;;;;;;;15.13;12.20;;;7.60;99.90;;;;;;5059494;28;20165;-83
2021/12/26 12:16:07;;;;;;;14.43;12.73;;;7.60;99.90;;;;;;5059598;28;20192;-84
2021/12/26 12:18:38;;;;;;;16.53;12.23;;;7.70;99.90;;;;;;5059662;28;20190;-80
2021/12/26 12:21:07;;;;;;;15.33;12.00;;;7.70;99.90;;;;;;5058773;28;20165;-80
2021/12/26 12:23:34;;;;;;;14.73;12.53;;;7.80;99.90;;;;;;5057883;28;20192;-78
2021/12/26 12:25:59;;;;;;;14.97;12.00;;;7.90;99.90;;;;;;5058399;28;20165;-80
2021/12/26 12:28:47;;;;;;;13.30;11.50;;;7.90;99.90;;;;;;5058888;28;20215;-81
2021/12/26 12:34:57;;;;;;;13.90;11.37;;;8.00;99.90;;;;;;5058383;28;20204;-80
2021/12/26 12:40:45;;;;;;;13.87;11.93;;;8.10;99.90;;;;;;5056202;28;20212;-81
2021/12/26 12:43:19;;;;;;;16.43;11.73;;;8.10;99.90;;;;;;5055636;28;20177;-79
2021/12/26 12:46:04;;;;;;;14.30;12.77;;;8.20;99.90;;;;;;5054298;28;20173;-78
2021/12/26 12:51:52;;;;;;;14.03;11.53;;;8.10;99.90;;;;;;5058802;28;20207;-78
2021/12/26 12:54:34;;;;;;;16.07;12.87;;;8.00;99.90;;;;;;5058546;28;20154;-79
2021/12/26 12:57:07;;;;;;;15.37;12.03;;;8.00;99.90;;;;;;5057706;28;20169;-81
2021/12/26 12:59:39;;;;;;;14.73;11.97;;;7.90;99.90;;;;;;5055115;28;20158;-80
2021/12/26 13:02:08;;;;;;;14.73;11.83;;;8.00;99.90;;;;;;5055492;28;20192;-83
2021/12/26 13:04:42;;;;;;;14.47;12.33;;;8.00;99.90;;;;;;5058278;28;20225;-82
2021/12/26 13:07:09;;;;;;;13.40;11.97;;;8.10;99.90;;;;;;5041879;28;20200;-87
2021/12/26 13:09:36;;;;;;;15.30;12.67;;;8.20;99.90;;;;;;5036880;28;20174;-80
2021/12/26 13:12:09;;;;;;;14.20;12.23;;;8.10;99.90;;;;;;5037123;28;20181;-93
2021/12/26 13:14:39;;;;;;;17.00;13.00;;;8.30;99.90;;;;;;5039530;28;20166;-92
2021/12/26 13:17:07;;;;;;;33.70;27.93;;;8.40;99.90;;;;;;5039297;28;20194;-93
2021/12/26 13:19:38;;;;;;;20.07;16.70;;;8.30;99.90;;;;;;5037660;28;20172;-91
2021/12/26 13:22:07;;;;;;;20.60;16.60;;;8.30;99.90;;;;;;5039971;28;20158;-84
2021/12/26 13:24:39;;;;;;;19.13;14.40;;;8.30;99.90;;;;;;5038579;28;20173;-78
2021/12/26 13:27:06;;;;;;;18.53;14.57;;;8.40;99.90;;;;;;5056307;28;20170;-80
2021/12/26 13:29:32;;;;;;;15.00;12.57;;;8.30;99.90;;;;;;5056438;28;20188;-79
2021/12/26 13:31:58;;;;;;;14.80;12.43;;;8.30;99.90;;;;;;5056486;28;20189;-79
2021/12/26 13:34:24;;;;;;;15.60;13.63;;;8.10;99.90;;;;;;5056891;28;20173;-80
2021/12/26 13:36:50;;;;;;;16.10;13.03;;;8.20;99.90;;;;;;5054723;28;20229;-81
2021/12/26 13:39:22;;;;;;;15.63;13.47;;;8.30;99.90;;;;;;5052292;28;20169;-79
2021/12/26 13:41:52;;;;;;;15.90;12.90;;;8.20;99.90;;;;;;5040615;28;20222;-89
2021/12/26 13:44:19;;;;;;;15.80;12.70;;;8.10;99.90;;;;;;5039740;28;20233;-92
2021/12/26 13:46:46;;;;;;;14.90;12.60;;;8.10;99.90;;;;;;5038954;28;20208;-89
2021/12/26 13:49:12;;;;;;;16.33;12.50;;;8.10;99.90;;;;;;5038500;28;20181;-89
2021/12/26 13:51:45;;;;;;;16.53;13.37;;;8.10;99.90;;;;;;5039860;28;20178;-85
2021/12/26 13:54:18;;;;;;;17.93;13.23;;;8.20;99.90;;;;;;5037695;28;20228;-83
2021/12/26 13:57:02;;;;;;;14.57;11.27;;;8.30;99.90;;;;;;5051885;28;20204;-80
2021/12/26 14:00:01;;;;;;;16.63;13.67;;;8.00;99.90;;;;;;5053639;28;20173;-79